Aviation Digital Data Service (ADDS)

Output produced by TAFs form (2232 UTC 06 May 2016)
found at http://aviationweather.gov/adds/tafs/
 
KCNY 062121Z 0621/0718 25015G30KT P6SM VCTS SCT110CB BKN150 
     TEMPO 0621/0624 25025G45KT -TSRA SCT070 BKN090CB 
     FM070000 20014G23KT P6SM BKN200 
     FM070300 VRB03KT P6SM BKN100